| time (UTC) | temp F | wind direction | speed MPH | gust MPH | rain 1hr in | rain 24hr in | rain mn in | humidity % | barometer mb |
| 20260507120604 | 58 | 347 | 0.0 | 0.0 | 0.06 | 0.08 | 0.07 | 99 | 1006.2 |
| 20260507120104 | 58 | 347 | 0.0 | 1.0 | 0.06 | 0.08 | 0.07 | 99 | 1005.9 |
| 20260507115604 | 58 | 347 | 0.0 | 1.0 | 0.06 | 0.08 | 0.07 | 99 | 1006.1 |
| 20260507115104 | 57 | 346 | 0.0 | 1.0 | 0.06 | 0.08 | 0.07 | 99 | 1005.9 |
| 20260507114603 | 58 | 346 | 0.0 | 1.0 | 0.06 | 0.08 | 0.07 | 99 | 1006.3 |
| 20260507114103 | 58 | 345 | 0.0 | 2.0 | 0.05 | 0.07 | 0.06 | 99 | 1006.1 |
| 20260507113604 | 58 | 345 | 1.0 | 2.0 | 0.05 | 0.07 | 0.06 | 99 | 1006.0 |
| 20260507113103 | 58 | 345 | 0.0 | 1.0 | 0.04 | 0.06 | 0.05 | 99 | 1006.2 |
| 20260507112603 | 59 | 346 | 1.0 | 2.0 | 0.03 | 0.05 | 0.04 | 99 | 1006.1 |
| 20260507112104 | 59 | 346 | 1.0 | 2.0 | 0.02 | 0.04 | 0.03 | 98 | 1006.3 |
| 20260507111603 | 59 | 346 | 0.0 | 2.0 | 0.00 | 0.02 | 0.01 | 97 | 1005.9 |
| 20260507111103 | 59 | 346 | 0.0 | 5.0 | 0.00 | 0.02 | 0.01 | 97 | 1005.9 |
| 20260507110604 | 59 | 345 | 1.0 | 2.0 | 0.00 | 0.02 | 0.01 | 96 | 1005.9 |
| 20260507110104 | 60 | 346 | 0.0 | 2.0 | 0.00 | 0.02 | 0.01 | 97 | 1005.5 |
| 20260507105604 | 60 | 344 | 2.0 | 6.0 | 0.00 | 0.02 | 0.01 | 96 | 1005.6 |
| 20260507105103 | 60 | 345 | 1.0 | 2.0 | 0.00 | 0.02 | 0.01 | 96 | 1005.3 |
| 20260507104603 | 60 | 346 | 1.0 | 2.0 | 0.00 | 0.02 | 0.01 | 97 | 1005.2 |
| 20260507104103 | 60 | 347 | 1.0 | 6.0 | 0.00 | 0.02 | 0.01 | 97 | 1005.3 |
| 20260507103603 | 61 | 346 | 1.0 | 2.0 | 0.00 | 0.02 | 0.01 | 98 | 1005.1 |
| 20260507103103 | 61 | 346 | 0.0 | 1.0 | 0.00 | 0.02 | 0.01 | 98 | 1005.2 |
| 20260507102604 | 61 | 345 | 1.0 | 2.0 | 0.00 | 0.02 | 0.01 | 97 | 1005.3 |
| 20260507102103 | 61 | 345 | 1.0 | 1.0 | 0.00 | 0.02 | 0.01 | 98 | 1005.2 |
| 20260507101603 | 61 | 346 | 1.0 | 3.0 | 0.00 | 0.02 | 0.01 | 97 | 1005.1 |
| 20260507101103 | 61 | 346 | 0.0 | 2.0 | 0.00 | 0.02 | 0.01 | 98 | 1005.1 |
| 20260507100603 | 61 | 345 | 1.0 | 3.0 | 0.00 | 0.02 | 0.01 | 98 | 1005.3 |
| 20260507100105 | 61 | 344 | 1.0 | 2.0 | 0.00 | 0.02 | 0.01 | 98 | 1005.1 |
| 20260507095603 | 61 | 345 | 1.0 | 3.0 | 0.00 | 0.02 | 0.01 | 98 | 1005.0 |
| 20260507095103 | 62 | 349 | 1.0 | 3.0 | 0.00 | 0.02 | 0.01 | 98 | 1005.3 |
| 20260507094603 | 62 | 347 | 1.0 | 5.0 | 0.00 | 0.02 | 0.01 | 98 | 1005.2 |
| 20260507094103 | 62 | 346 | 1.0 | 2.0 | 0.00 | 0.02 | 0.01 | 99 | 1005.0 |
| 20260507093604 | 63 | 344 | 1.0 | 2.0 | 0.00 | 0.02 | 0.01 | 99 | 1004.9 |
| 20260507093104 | 63 | 344 | 1.0 | 2.0 | 0.00 | 0.02 | 0.01 | 99 | 1004.9 |
| 20260507092604 | 63 | 346 | 0.0 | 1.0 | 0.00 | 0.02 | 0.01 | 99 | 1004.6 |
| 20260507092104 | 63 | 346 | 0.0 | 1.0 | 0.00 | 0.02 | 0.01 | 99 | 1004.5 |
| 20260507091604 | 63 | 347 | 0.0 | 2.0 | 0.00 | 0.02 | 0.01 | 99 | 1004.4 |
| 20260507091104 | 64 | 348 | 1.0 | 2.0 | 0.00 | 0.02 | 0.01 | 99 | 1004.1 |
| 20260507090105 | 64 | 347 | 1.0 | 2.0 | 0.00 | 0.02 | 0.01 | 99 | 1004.0 |
| 20260507085603 | 65 | 347 | 0.0 | 3.0 | 0.00 | 0.02 | 0.01 | 99 | 1003.8 |
| 20260507085103 | 65 | 345 | 1.0 | 3.0 | 0.00 | 0.02 | 0.01 | 99 | 1004.2 |
| 20260507084603 | 66 | 344 | 1.0 | 2.0 | 0.00 | 0.02 | 0.01 | 99 | 1004.2 |
| 20260507084103 | 67 | 342 | 2.0 | 3.0 | 0.01 | 0.02 | 0.01 | 99 | 1004.2 |
| 20260507083604 | 67 | 343 | 0.0 | 1.0 | 0.01 | 0.02 | 0.01 | 99 | 1004.1 |
| 20260507083103 | 67 | 342 | 0.0 | 0.0 | 0.01 | 0.02 | 0.01 | 99 | 1003.7 |
| 20260507082604 | 67 | 342 | 0.0 | 1.0 | 0.01 | 0.02 | 0.01 | 99 | 1003.6 |
| 20260507082104 | 67 | 342 | 0.0 | 3.0 | 0.01 | 0.02 | 0.01 | 99 | 1003.8 |
| 20260507081604 | 67 | 340 | 1.0 | 3.0 | 0.01 | 0.02 | 0.01 | 99 | 1003.8 |
| 20260507081104 | 68 | 342 | 0.0 | 1.0 | 0.01 | 0.02 | 0.01 | 99 | 1003.8 |
| 20260507080603 | 68 | 342 | 0.0 | 1.0 | 0.01 | 0.02 | 0.01 | 99 | 1003.9 |
| 20260507075604 | 68 | 342 | 1.0 | 2.0 | 0.01 | 0.02 | 0.01 | 98 | 1003.8 |
| 20260507075103 | 69 | 342 | 0.0 | 3.0 | 0.01 | 0.02 | 0.01 | 98 | 1004.1 |
| 20260507074603 | 69 | 341 | 2.0 | 3.0 | 0.01 | 0.02 | 0.01 | 97 | 1004.2 |
| 20260507074103 | 69 | 342 | 1.0 | 3.0 | 0.00 | 0.01 | 0.00 | 97 | 1004.3 |
| 20260507073604 | 69 | 344 | 1.0 | 3.0 | 0.00 | 0.01 | 0.00 | 96 | 1004.0 |
| 20260507073104 | 69 | 341 | 2.0 | 7.0 | 0.00 | 0.01 | 0.00 | 96 | 1003.9 |
| 20260507072604 | 69 | 340 | 2.0 | 8.0 | 0.00 | 0.01 | 0.00 | 96 | 1003.9 |
| 20260507072103 | 69 | 337 | 3.0 | 8.0 | 0.00 | 0.01 | 0.00 | 97 | 1003.7 |
| 20260507071604 | 69 | 341 | 3.0 | 6.0 | 0.00 | 0.01 | 0.00 | 97 | 1003.6 |
| 20260507071103 | 69 | 339 | 2.0 | 5.0 | 0.00 | 0.01 | 0.00 | 97 | 1003.4 |
| 20260507070604 | 69 | 341 | 1.0 | 3.0 | 0.00 | 0.01 | 0.00 | 96 | 1003.2 |
| 20260507065603 | 70 | 339 | 3.0 | 5.0 | 0.00 | 0.01 | 0.00 | 95 | 1003.1 |
| 20260507065104 | 70 | 341 | 2.0 | 3.0 | 0.00 | 0.01 | 0.00 | 95 | 1002.8 |
| 20260507064604 | 70 | 341 | 1.0 | 2.0 | 0.00 | 0.01 | 0.00 | 95 | 1002.7 |
| 20260507064103 | 70 | 343 | 0.0 | 6.0 | 0.00 | 0.01 | 0.00 | 95 | 1002.6 |
| 20260507063604 | 70 | 338 | 2.0 | 5.0 | 0.00 | 0.01 | 0.00 | 95 | 1002.7 |
| 20260507062603 | 70 | 338 | 2.0 | 5.0 | 0.00 | 0.01 | 0.00 | 94 | 1002.8 |
| 20260507061604 | 70 | 330 | 3.0 | 9.0 | 0.00 | 0.01 | 0.00 | 94 | 1003.0 |
| 20260507061104 | 70 | 338 | 4.0 | 7.0 | 0.00 | 0.01 | 0.00 | 93 | 1003.2 |
| 20260507060604 | 71 | 339 | 2.0 | 8.0 | 0.00 | 0.01 | 0.00 | 94 | 1003.3 |
| 20260507060105 | 71 | 339 | 3.0 | 8.0 | 0.00 | 0.01 | 0.00 | 93 | 1003.4 |
| 20260507055103 | 71 | 328 | 4.0 | 7.0 | 0.00 | 0.01 | 0.00 | 91 | 1003.8 |
| 20260507054104 | 72 | 331 | 5.0 | 9.0 | 0.00 | 0.01 | 0.00 | 88 | 1003.7 |
| 20260507053603 | 72 | 338 | 3.0 | 9.0 | 0.00 | 0.01 | 0.00 | 88 | 1004.1 |
| 20260507053104 | 72 | 344 | 3.0 | 7.0 | 0.00 | 0.01 | 0.00 | 88 | 1004.2 |
| 20260507052604 | 72 | 337 | 5.0 | 7.0 | 0.00 | 0.01 | 0.00 | 88 | 1004.2 |
| 20260507052104 | 72 | 337 | 3.0 | 6.0 | 0.00 | 0.01 | 0.00 | 87 | 1004.3 |
| 20260507051604 | 72 | 337 | 3.0 | 6.0 | 0.00 | 0.01 | 0.00 | 87 | 1004.2 |
| 20260507051103 | 72 | 334 | 5.0 | 8.0 | 0.00 | 0.01 | 0.00 | 87 | 1004.5 |
| 20260507050603 | 72 | 343 | 2.0 | 8.0 | 0.00 | 0.01 | 0.00 | 86 | 1004.2 |
| 20260507050104 | 72 | 336 | 5.0 | 10.0 | 0.00 | 0.01 | 0.00 | 86 | 1004.4 |
| 20260507045603 | 72 | 334 | 3.0 | 6.0 | 0.00 | 0.01 | 0.00 | 86 | 1004.4 |
| 20260507045104 | 72 | 331 | 5.0 | 7.0 | 0.00 | 0.01 | 0.00 | 86 | 1004.5 |
| 20260507044603 | 72 | 339 | 4.0 | 7.0 | 0.00 | 0.01 | 0.00 | 86 | 1004.4 |
| 20260507043603 | 72 | 345 | 3.0 | 8.0 | 0.00 | 0.01 | 0.00 | 86 | 1004.5 |
| 20260507043103 | 72 | 329 | 5.0 | 8.0 | 0.00 | 0.01 | 0.00 | 86 | 1004.4 |
| 20260507042103 | 71 | 333 | 5.0 | 8.0 | 0.00 | 0.01 | 0.00 | 88 | 1004.3 |
| 20260507041603 | 71 | 334 | 4.0 | 6.0 | 0.00 | 0.01 | 0.00 | 88 | 1004.2 |
| 20260507041105 | 71 | 343 | 1.0 | 8.0 | 0.00 | 0.01 | 0.00 | 88 | 1004.4 |
| 20260507040604 | 71 | 338 | 3.0 | 6.0 | 0.00 | 0.01 | 0.00 | 89 | 1004.3 |
| 20260507040105 | 71 | 342 | 2.0 | 6.0 | 0.00 | 0.01 | 0.00 | 89 | 1004.3 |
| 20260507035604 | 71 | 340 | 3.0 | 8.0 | 0.00 | 0.01 | 0.01 | 89 | 1004.4 |
| 20260507035104 | 70 | 340 | 4.0 | 8.0 | 0.00 | 0.01 | 0.01 | 89 | 1004.4 |
| 20260507034103 | 70 | 343 | 2.0 | 3.0 | 0.00 | 0.01 | 0.01 | 90 | 1004.5 |
| 20260507033604 | 70 | 342 | 2.0 | 5.0 | 0.00 | 0.01 | 0.01 | 90 | 1004.3 |
| 20260507033104 | 70 | 344 | 2.0 | 5.0 | 0.00 | 0.01 | 0.01 | 90 | 1004.5 |
| 20260507032603 | 70 | 339 | 2.0 | 5.0 | 0.00 | 0.01 | 0.01 | 91 | 1004.3 |
| 20260507032104 | 69 | 339 | 1.0 | 5.0 | 0.00 | 0.01 | 0.01 | 91 | 1004.1 |
| 20260507031604 | 70 | 342 | 4.0 | 7.0 | 0.00 | 0.01 | 0.01 | 90 | 1004.2 |
| 20260507031103 | 69 | 338 | 2.0 | 6.0 | 0.00 | 0.01 | 0.01 | 91 | 1004.2 |
| 20260507030604 | 69 | 342 | 2.0 | 5.0 | 0.00 | 0.01 | 0.01 | 91 | 1004.4 |
| 20260507030105 | 69 | 342 | 1.0 | 6.0 | 0.00 | 0.01 | 0.01 | 91 | 1004.5 |
| 20260507025604 | 69 | 340 | 3.0 | 7.0 | 0.00 | 0.01 | 0.01 | 91 | 1004.3 |
| 20260507024103 | 69 | 341 | 2.0 | 3.0 | 0.00 | 0.01 | 0.01 | 91 | 1004.3 |
| 20260507023604 | 70 | 341 | 2.0 | 6.0 | 0.00 | 0.01 | 0.01 | 90 | 1004.4 |
| 20260507023104 | 70 | 342 | 2.0 | 5.0 | 0.00 | 0.01 | 0.01 | 90 | 1004.6 |
| 20260507022604 | 70 | 341 | 3.0 | 5.0 | 0.00 | 0.01 | 0.01 | 89 | 1004.6 |
| 20260507022104 | 70 | 339 | 3.0 | 5.0 | 0.00 | 0.01 | 0.01 | 89 | 1004.5 |
| 20260507021604 | 70 | 339 | 2.0 | 5.0 | 0.00 | 0.01 | 0.01 | 89 | 1004.4 |
| 20260507020604 | 70 | 339 | 2.0 | 6.0 | 0.00 | 0.01 | 0.01 | 89 | 1004.6 |
| 20260507015604 | 70 | 339 | 2.0 | 5.0 | 0.00 | 0.01 | 0.01 | 89 | 1004.7 |
| 20260507015104 | 70 | 341 | 2.0 | 5.0 | 0.00 | 0.01 | 0.01 | 88 | 1004.7 |
| 20260507014604 | 70 | 342 | 1.0 | 3.0 | 0.00 | 0.01 | 0.01 | 88 | 1004.8 |
| 20260507014104 | 70 | 339 | 2.0 | 3.0 | 0.00 | 0.01 | 0.01 | 88 | 1004.8 |
| 20260507013603 | 71 | 342 | 1.0 | 5.0 | 0.00 | 0.01 | 0.01 | 88 | 1004.6 |
| 20260507013103 | 70 | 342 | 2.0 | 5.0 | 0.00 | 0.01 | 0.01 | 88 | 1004.7 |
| 20260507012604 | 71 | 344 | 1.0 | 2.0 | 0.00 | 0.01 | 0.01 | 87 | 1004.6 |
| 20260507012103 | 71 | 343 | 1.0 | 3.0 | 0.00 | 0.01 | 0.01 | 87 | 1004.6 |
| 20260507011604 | 71 | 341 | 2.0 | 7.0 | 0.00 | 0.01 | 0.01 | 86 | 1004.7 |
| 20260507011104 | 71 | 343 | 2.0 | 5.0 | 0.00 | 0.01 | 0.01 | 86 | 1004.9 |
| 20260507010603 | 71 | 338 | 2.0 | 6.0 | 0.00 | 0.01 | 0.01 | 86 | 1004.6 |
| 20260507005604 | 71 | 343 | 1.0 | 3.0 | 0.00 | 0.01 | 0.01 | 85 | 1004.8 |
| 20260507005103 | 71 | 344 | 2.0 | 6.0 | 0.00 | 0.01 | 0.01 | 85 | 1004.8 |
| 20260507004603 | 71 | 342 | 1.0 | 5.0 | 0.00 | 0.01 | 0.01 | 85 | 1004.6 |
| 20260507003604 | 72 | 343 | 1.0 | 3.0 | 0.00 | 0.01 | 0.01 | 84 | 1004.6 |
| 20260507003104 | 72 | 342 | 1.0 | 3.0 | 0.00 | 0.01 | 0.01 | 84 | 1004.6 |
| 20260507002603 | 72 | 341 | 2.0 | 3.0 | 0.00 | 0.01 | 0.01 | 84 | 1004.5 |
| 20260507002104 | 72 | 340 | 3.0 | 7.0 | 0.00 | 0.01 | 0.01 | 83 | 1004.6 |
| 20260507001603 | 72 | 344 | 1.0 | 3.0 | 0.00 | 0.01 | 0.01 | 83 | 1004.7 |
| 20260507001103 | 72 | 342 | 1.0 | 6.0 | 0.00 | 0.01 | 0.01 | 83 | 1004.6 |
| 20260507000104 | 73 | 342 | 3.0 | 7.0 | 0.00 | 0.01 | 0.01 | 82 | 1004.3 |
| 20260506235604 | 72 | 342 | 1.0 | 6.0 | 0.00 | 0.01 | 0.01 | 83 | 1004.4 |
| 20260506235104 | 73 | 338 | 2.0 | 6.0 | 0.00 | 0.01 | 0.01 | 82 | 1004.2 |
| 20260506234603 | 73 | 342 | 2.0 | 3.0 | 0.00 | 0.01 | 0.01 | 82 | 1004.5 |
| 20260506233603 | 73 | 342 | 1.0 | 5.0 | 0.00 | 0.01 | 0.01 | 82 | 1004.3 |
| 20260506233104 | 73 | 342 | 2.0 | 3.0 | 0.00 | 0.01 | 0.01 | 81 | 1004.3 |
| 20260506232603 | 73 | 342 | 2.0 | 5.0 | 0.00 | 0.01 | 0.01 | 81 | 1004.3 |
| 20260506231604 | 73 | 339 | 3.0 | 5.0 | 0.00 | 0.01 | 0.01 | 81 | 1004.1 |
| 20260506231104 | 73 | 343 | 2.0 | 6.0 | 0.00 | 0.01 | 0.01 | 81 | 1004.1 |
| 20260506230604 | 74 | 341 | 3.0 | 5.0 | 0.00 | 0.01 | 0.01 | 80 | 1004.0 |
| 20260506230104 | 74 | 340 | 3.0 | 8.0 | 0.00 | 0.01 | 0.01 | 80 | 1004.1 |
| 20260506225604 | 74 | 342 | 2.0 | 7.0 | 0.00 | 0.01 | 0.01 | 80 | 1004.2 |
| 20260506225103 | 74 | 341 | 2.0 | 6.0 | 0.00 | 0.01 | 0.01 | 81 | 1004.1 |
| 20260506224603 | 74 | 341 | 2.0 | 7.0 | 0.00 | 0.01 | 0.01 | 79 | 1004.1 |
| 20260506224104 | 74 | 339 | 3.0 | 6.0 | 0.00 | 0.01 | 0.01 | 80 | 1004.3 |
| 20260506223604 | 74 | 338 | 4.0 | 8.0 | 0.00 | 0.01 | 0.01 | 79 | 1004.2 |
| 20260506223104 | 74 | 341 | 4.0 | 7.0 | 0.00 | 0.01 | 0.01 | 79 | 1004.3 |
| 20260506222604 | 74 | 335 | 6.0 | 9.0 | 0.00 | 0.01 | 0.01 | 79 | 1004.1 |
| 20260506222104 | 74 | 338 | 3.0 | 7.0 | 0.00 | 0.01 | 0.01 | 78 | 1004.1 |
| 20260506221604 | 75 | 340 | 4.0 | 6.0 | 0.00 | 0.01 | 0.01 | 78 | 1004.4 |
| 20260506221104 | 75 | 340 | 3.0 | 6.0 | 0.00 | 0.01 | 0.01 | 77 | 1004.3 |
| 20260506215604 | 75 | 336 | 5.0 | 9.0 | 0.00 | 0.01 | 0.01 | 78 | 1004.3 |
| 20260506215104 | 75 | 341 | 4.0 | 8.0 | 0.00 | 0.01 | 0.01 | 77 | 1004.2 |
| 20260506214603 | 75 | 337 | 3.0 | 14.0 | 0.00 | 0.01 | 0.01 | 77 | 1004.4 |
| 20260506214104 | 74 | 333 | 6.0 | 13.0 | 0.00 | 0.01 | 0.01 | 77 | 1004.3 |
| 20260506213604 | 74 | 333 | 6.0 | 10.0 | 0.00 | 0.01 | 0.01 | 77 | 1004.4 |
| 20260506213104 | 74 | 340 | 3.0 | 7.0 | 0.00 | 0.01 | 0.01 | 78 | 1004.1 |
| 20260506211604 | 75 | 337 | 5.0 | 10.0 | 0.00 | 0.01 | 0.01 | 77 | 1004.3 |
| 20260506211104 | 75 | 337 | 7.0 | 14.0 | 0.00 | 0.01 | 0.01 | 78 | 1004.2 |
| 20260506210104 | 75 | 332 | 9.0 | 15.0 | 0.00 | 0.01 | 0.01 | 77 | 1003.7 |
| 20260506205604 | 74 | 331 | 6.0 | 8.0 | 0.00 | 0.01 | 0.01 | 76 | 1003.9 |
| 20260506204603 | 74 | 330 | 5.0 | 9.0 | 0.00 | 0.01 | 0.01 | 78 | 1004.1 |
| 20260506204104 | 74 | 336 | 6.0 | 10.0 | 0.00 | 0.01 | 0.01 | 77 | 1003.8 |
| 20260506203604 | 74 | 327 | 4.0 | 10.0 | 0.00 | 0.01 | 0.01 | 77 | 1003.9 |
| 20260506202603 | 74 | 338 | 4.0 | 8.0 | 0.00 | 0.01 | 0.01 | 78 | 1003.7 |
| 20260506202103 | 74 | 339 | 4.0 | 15.0 | 0.00 | 0.01 | 0.01 | 78 | 1003.6 |
| 20260506201603 | 74 | 334 | 7.0 | 15.0 | 0.00 | 0.01 | 0.01 | 78 | 1003.8 |
| 20260506200604 | 73 | 338 | 5.0 | 9.0 | 0.00 | 0.01 | 0.01 | 79 | 1003.7 |
| 20260506200104 | 73 | 340 | 3.0 | 7.0 | 0.00 | 0.01 | 0.01 | 82 | 1003.9 |
| 20260506195604 | 73 | 340 | 2.0 | 5.0 | 0.00 | 0.01 | 0.01 | 82 | 1004.3 |
| 20260506195104 | 72 | 340 | 3.0 | 5.0 | 0.00 | 0.01 | 0.01 | 82 | 1004.2 |
| 20260506194604 | 72 | 338 | 2.0 | 9.0 | 0.00 | 0.01 | 0.01 | 82 | 1004.1 |
| 20260506194104 | 71 | 338 | 3.0 | 6.0 | 0.00 | 0.01 | 0.01 | 84 | 1004.1 |
| 20260506193603 | 71 | 336 | 4.0 | 6.0 | 0.00 | 0.01 | 0.01 | 84 | 1004.1 |
| 20260506193104 | 71 | 335 | 5.0 | 7.0 | 0.00 | 0.01 | 0.01 | 84 | 1004.6 |
| 20260506192604 | 71 | 339 | 3.0 | 7.0 | 0.00 | 0.01 | 0.01 | 85 | 1004.8 |
| 20260506192104 | 71 | 335 | 3.0 | 6.0 | 0.00 | 0.01 | 0.01 | 85 | 1005.1 |
| 20260506191603 | 71 | 341 | 3.0 | 5.0 | 0.00 | 0.01 | 0.01 | 85 | 1005.0 |
| 20260506190603 | 71 | 338 | 3.0 | 7.0 | 0.00 | 0.01 | 0.01 | 83 | 1005.3 |
| 20260506190105 | 71 | 341 | 3.0 | 9.0 | 0.00 | 0.01 | 0.01 | 84 | 1005.3 |
| 20260506185604 | 71 | 329 | 5.0 | 10.0 | 0.00 | 0.01 | 0.01 | 82 | 1005.3 |
| 20260506185104 | 72 | 333 | 6.0 | 10.0 | 0.00 | 0.01 | 0.01 | 82 | 1005.4 |
| 20260506184604 | 72 | 339 | 10.0 | 17.0 | 0.00 | 0.01 | 0.01 | 79 | 1005.4 |
| 20260506183604 | 73 | 321 | 8.0 | 16.0 | 0.00 | 0.01 | 0.01 | 79 | 1005.6 |
| 20260506183104 | 73 | 336 | 7.0 | 12.0 | 0.00 | 0.01 | 0.01 | 79 | 1005.7 |
| 20260506182603 | 72 | 337 | 6.0 | 12.0 | 0.00 | 0.01 | 0.01 | 80 | 1005.8 |
| 20260506182104 | 72 | 334 | 7.0 | 12.0 | 0.00 | 0.01 | 0.01 | 80 | 1005.8 |
| 20260506181603 | 72 | 335 | 4.0 | 13.0 | 0.00 | 0.01 | 0.01 | 80 | 1006.1 |
| 20260506181104 | 72 | 339 | 4.0 | 13.0 | 0.00 | 0.01 | 0.01 | 82 | 1006.0 |
| 20260506180604 | 71 | 334 | 4.0 | 13.0 | 0.00 | 0.01 | 0.01 | 82 | 1006.0 |
| 20260506180104 | 71 | 329 | 6.0 | 12.0 | 0.00 | 0.01 | 0.01 | 84 | 1006.0 |
| 20260506175604 | 71 | 350 | 6.0 | 9.0 | 0.00 | 0.01 | 0.01 | 84 | 1005.8 |
| 20260506175104 | 71 | 327 | 7.0 | 14.0 | 0.00 | 0.01 | 0.01 | 84 | 1005.8 |
| 20260506174603 | 71 | 335 | 6.0 | 10.0 | 0.00 | 0.01 | 0.01 | 83 | 1005.8 |
| 20260506173603 | 71 | 333 | 5.0 | 13.0 | 0.00 | 0.01 | 0.01 | 86 | 1005.8 |
| 20260506173103 | 70 | 335 | 6.0 | 12.0 | 0.00 | 0.01 | 0.01 | 84 | 1005.7 |
| 20260506172603 | 70 | 334 | 6.0 | 9.0 | 0.00 | 0.01 | 0.01 | 85 | 1005.9 |
| 20260506172103 | 70 | 338 | 5.0 | 10.0 | 0.00 | 0.01 | 0.01 | 86 | 1006.0 |
| 20260506171603 | 69 | 337 | 4.0 | 10.0 | 0.00 | 0.01 | 0.01 | 88 | 1006.0 |
| 20260506170603 | 69 | 328 | 9.0 | 12.0 | 0.00 | 0.01 | 0.01 | 87 | 1006.2 |
| 20260506170104 | 68 | 344 | 7.0 | 10.0 | 0.00 | 0.01 | 0.01 | 87 | 1006.4 |
| 20260506165603 | 68 | 330 | 5.0 | 12.0 | 0.01 | 0.01 | 0.01 | 89 | 1006.5 |
| 20260506165103 | 68 | 328 | 5.0 | 12.0 | 0.01 | 0.01 | 0.01 | 91 | 1006.5 |
| 20260506164604 | 67 | 335 | 5.0 | 9.0 | 0.01 | 0.01 | 0.01 | 91 | 1006.5 |
| 20260506164104 | 67 | 332 | 6.0 | 9.0 | 0.01 | 0.01 | 0.01 | 91 | 1006.7 |
| 20260506163604 | 67 | 341 | 3.0 | 7.0 | 0.01 | 0.01 | 0.01 | 93 | 1006.8 |
| 20260506163103 | 67 | 335 | 5.0 | 7.0 | 0.01 | 0.01 | 0.01 | 92 | 1006.9 |
| 20260506162104 | 67 | 341 | 3.0 | 6.0 | 0.01 | 0.01 | 0.01 | 93 | 1006.9 |
| 20260506161103 | 67 | 336 | 3.0 | 6.0 | 0.01 | 0.01 | 0.01 | 93 | 1007.1 |
| 20260506160603 | 67 | 339 | 3.0 | 6.0 | 0.01 | 0.01 | 0.01 | 93 | 1007.3 |
| 20260506160104 | 67 | 340 | 4.0 | 9.0 | 0.01 | 0.01 | 0.01 | 91 | 1007.3 |
| 20260506155603 | 67 | 334 | 4.0 | 6.0 | 0.00 | 0.00 | 0.00 | 90 | 1007.5 |
| 20260506155104 | 67 | 333 | 3.0 | 7.0 | 0.00 | 0.00 | 0.00 | 89 | 1007.5 |
| 20260506154104 | 68 | 331 | 6.0 | 8.0 | 0.00 | 0.00 | 0.00 | 87 | 1007.8 |
| 20260506153104 | 68 | 323 | 8.0 | 12.0 | 0.00 | 0.00 | 0.00 | 85 | 1007.9 |
| 20260506152604 | 68 | 338 | 5.0 | 12.0 | 0.00 | 0.00 | 0.00 | 86 | 1007.9 |
| 20260506152104 | 68 | 338 | 3.0 | 9.0 | 0.00 | 0.00 | 0.00 | 87 | 1007.9 |
| 20260506151604 | 69 | 337 | 5.0 | 8.0 | 0.00 | 0.00 | 0.00 | 85 | 1008.1 |
| 20260506151104 | 69 | 330 | 5.0 | 8.0 | 0.00 | 0.00 | 0.00 | 85 | 1007.9 |
| 20260506150104 | 70 | 332 | 7.0 | 13.0 | 0.00 | 0.00 | 0.00 | 83 | 1008.1 |
| 20260506145604 | 70 | 326 | 8.0 | 13.0 | 0.00 | 0.00 | 0.00 | 80 | 1007.9 |
| 20260506145103 | 70 | 330 | 6.0 | 10.0 | 0.00 | 0.00 | 0.00 | 81 | 1007.7 |
| 20260506144604 | 69 | 330 | 6.0 | 12.0 | 0.00 | 0.00 | 0.00 | 82 | 1007.6 |
| 20260506144103 | 69 | 330 | 4.0 | 7.0 | 0.00 | 0.00 | 0.00 | 83 | 1007.7 |
| 20260506143603 | 69 | 325 | 7.0 | 14.0 | 0.00 | 0.00 | 0.00 | 83 | 1007.6 |
| 20260506143104 | 68 | 328 | 6.0 | 9.0 | 0.00 | 0.00 | 0.00 | 83 | 1007.5 |
| 20260506142604 | 68 | 331 | 6.0 | 12.0 | 0.00 | 0.00 | 0.00 | 84 | 1007.4 |
| 20260506142104 | 68 | 335 | 5.0 | 8.0 | 0.00 | 0.00 | 0.00 | 83 | 1007.4 |
| 20260506141604 | 68 | 339 | 3.0 | 7.0 | 0.00 | 0.00 | 0.00 | 83 | 1007.7 |
| 20260506141104 | 68 | 330 | 4.0 | 10.0 | 0.00 | 0.00 | 0.00 | 83 | 1007.8 |
| 20260506140604 | 68 | 338 | 4.0 | 7.0 | 0.00 | 0.00 | 0.00 | 83 | 1007.6 |
| 20260506140104 | 68 | 341 | 4.0 | 10.0 | 0.00 | 0.00 | 0.00 | 83 | 1007.6 |
| 20260506135603 | 68 | 337 | 5.0 | 8.0 | 0.00 | 0.00 | 0.00 | 82 | 1007.6 |
| 20260506134604 | 69 | 334 | 5.0 | 10.0 | 0.00 | 0.00 | 0.00 | 82 | 1007.5 |
| 20260506134103 | 69 | 331 | 6.0 | 9.0 | 0.00 | 0.00 | 0.00 | 81 | 1007.5 |
| 20260506133603 | 69 | 324 | 7.0 | 14.0 | 0.00 | 0.00 | 0.00 | 80 | 1007.5 |
| 20260506133104 | 69 | 336 | 6.0 | 17.0 | 0.00 | 0.00 | 0.00 | 81 | 1007.5 |
| 20260506132603 | 69 | 317 | 9.0 | 15.0 | 0.00 | 0.00 | 0.00 | 80 | 1007.6 |
| 20260506132104 | 69 | 332 | 9.0 | 15.0 | 0.00 | 0.00 | 0.00 | 81 | 1007.6 |
| 20260506131604 | 69 | 332 | 6.0 | 20.0 | 0.00 | 0.00 | 0.00 | 82 | 1007.6 |
| 20260506131104 | 69 | 328 | 4.0 | 13.0 | 0.00 | 0.00 | 0.00 | 81 | 1007.6 |
| 20260506130104 | 69 | 333 | 6.0 | 12.0 | 0.00 | 0.00 | 0.00 | 81 | 1007.5 |
| 20260506125603 | 68 | 326 | 9.0 | 14.0 | 0.00 | 0.00 | 0.00 | 81 | 1007.6 |
| 20260506124603 | 68 | 338 | 8.0 | 13.0 | 0.00 | 0.00 | 0.00 | 82 | 1007.5 |
| 20260506124104 | 68 | 323 | 8.0 | 13.0 | 0.00 | 0.00 | 0.00 | 81 | 1007.5 |
| 20260506123604 | 67 | 337 | 7.0 | 12.0 | 0.00 | 0.00 | 0.00 | 83 | 1007.5 |
| 20260506123103 | 66 | 328 | 5.0 | 9.0 | 0.00 | 0.00 | 0.00 | 84 | 1007.5 |
| 20260506122604 | 66 | 335 | 5.0 | 9.0 | 0.00 | 0.00 | 0.00 | 85 | 1007.6 |
| 20260506122104 | 66 | 333 | 6.0 | 9.0 | 0.00 | 0.00 | 0.00 | 84 | 1007.7 |
| 20260506121603 | 66 | 336 | 5.0 | 9.0 | 0.00 | 0.00 | 0.00 | 85 | 1007.8 |
| 20260506121103 | 66 | 336 | 5.0 | 10.0 | 0.00 | 0.00 | 0.00 | 85 | 1007.6 |